Nordborg, Denmark
Current Conditions -  °F | °C
As of 6:50 PM on Thursday 27 Nov 2014 (Local Time) from EKSB Reporting Station
Broken Clouds Broken Clouds  
Wind Chill: 33°   Ceiling: 2500
Heat Index: 43°   Visibility: 6mi
Dew Point: 34°   Wind: 24mph
Humidity: 70%   Direction: 120°ESE
Pressure: 29.97"   Gusts: NA
Location:  55.06°N, 9.74°E
Report Text: EKSB 271750Z 12021KT 9999 BKN025 06/01 Q1015
Loading
Personal Weather Stations






























Interactive Weather Map New forecast layout! Learn more

10-Day Weather Forecast

Advertisements
Track Severe Weather on mobile